sensor_id;sensor_type;location;lat;lon;timestamp;P1;durP1;ratioP1;P2;durP2;ratioP2
62071;SDS011;48031;48.542;13.232;2023-11-19T00:01:29;4.32;;;2.50;;
62071;SDS011;48031;48.542;13.232;2023-11-19T00:05:31;4.78;;;2.60;;
62071;SDS011;48031;48.542;13.232;2023-11-19T00:09:33;2.90;;;2.10;;
62071;SDS011;48031;48.542;13.232;2023-11-19T00:13:35;4.82;;;3.08;;
62071;SDS011;48031;48.542;13.232;2023-11-19T00:17:40;3.67;;;2.70;;
62071;SDS011;48031;48.542;13.232;2023-11-19T00:21:46;5.85;;;2.63;;
62071;SDS011;48031;48.542;13.232;2023-11-19T00:25:48;3.65;;;2.22;;
62071;SDS011;48031;48.542;13.232;2023-11-19T00:29:50;2.58;;;2.00;;
62071;SDS011;48031;48.542;13.232;2023-11-19T00:33:52;3.70;;;2.40;;
62071;SDS011;48031;48.542;13.232;2023-11-19T00:37:54;2.92;;;1.90;;
62071;SDS011;48031;48.542;13.232;2023-11-19T00:41:56;3.25;;;2.10;;
62071;SDS011;48031;48.542;13.232;2023-11-19T00:45:57;2.30;;;1.70;;
62071;SDS011;48031;48.542;13.232;2023-11-19T00:49:59;2.80;;;1.90;;
62071;SDS011;48031;48.542;13.232;2023-11-19T00:54:01;2.65;;;1.85;;
62071;SDS011;48031;48.542;13.232;2023-11-19T00:58:03;2.30;;;1.70;;
62071;SDS011;48031;48.542;13.232;2023-11-19T01:02:06;2.58;;;1.90;;
62071;SDS011;48031;48.542;13.232;2023-11-19T01:06:08;3.08;;;2.00;;
62071;SDS011;48031;48.542;13.232;2023-11-19T01:10:11;3.40;;;2.20;;
62071;SDS011;48031;48.542;13.232;2023-11-19T01:14:13;4.45;;;2.15;;
62071;SDS011;48031;48.542;13.232;2023-11-19T01:18:16;3.17;;;2.05;;
62071;SDS011;48031;48.542;13.232;2023-11-19T01:22:18;2.92;;;1.95;;
62071;SDS011;48031;48.542;13.232;2023-11-19T01:26:20;2.75;;;1.65;;
62071;SDS011;48031;48.542;13.232;2023-11-19T01:30:22;4.07;;;2.22;;
62071;SDS011;48031;48.542;13.232;2023-11-19T01:34:24;2.45;;;1.70;;
62071;SDS011;48031;48.542;13.232;2023-11-19T01:38:26;2.22;;;1.80;;
62071;SDS011;48031;48.542;13.232;2023-11-19T01:42:28;1.60;;;1.50;;
62071;SDS011;48031;48.542;13.232;2023-11-19T01:46:30;2.22;;;1.85;;
62071;SDS011;48031;48.542;13.232;2023-11-19T01:50:34;3.20;;;1.80;;
62071;SDS011;48031;48.542;13.232;2023-11-19T01:54:37;2.42;;;1.85;;
62071;SDS011;48031;48.542;13.232;2023-11-19T01:58:38;2.55;;;2.08;;
62071;SDS011;48031;48.542;13.232;2023-11-19T02:02:41;2.33;;;1.85;;
62071;SDS011;48031;48.542;13.232;2023-11-19T02:06:46;2.33;;;1.90;;
62071;SDS011;48031;48.542;13.232;2023-11-19T02:10:50;2.17;;;1.80;;
62071;SDS011;48031;48.542;13.232;2023-11-19T02:14:52;2.70;;;1.77;;
62071;SDS011;48031;48.542;13.232;2023-11-19T02:18:54;2.42;;;1.90;;
62071;SDS011;48031;48.542;13.232;2023-11-19T02:22:56;2.33;;;1.90;;
62071;SDS011;48031;48.542;13.232;2023-11-19T02:27:08;3.58;;;2.47;;
62071;SDS011;48031;48.542;13.232;2023-11-19T02:31:12;2.67;;;2.05;;
62071;SDS011;48031;48.542;13.232;2023-11-19T02:35:14;2.97;;;2.40;;
62071;SDS011;48031;48.542;13.232;2023-11-19T02:39:16;2.50;;;2.30;;
62071;SDS011;48031;48.542;13.232;2023-11-19T02:43:23;2.13;;;1.83;;
62071;SDS011;48031;48.542;13.232;2023-11-19T02:47:25;1.85;;;1.70;;
62071;SDS011;48031;48.542;13.232;2023-11-19T02:51:27;3.80;;;2.53;;
62071;SDS011;48031;48.542;13.232;2023-11-19T02:55:29;3.13;;;1.80;;
62071;SDS011;48031;48.542;13.232;2023-11-19T02:59:39;1.85;;;1.67;;
62071;SDS011;48031;48.542;13.232;2023-11-19T03:03:43;2.72;;;2.20;;
62071;SDS011;48031;48.542;13.232;2023-11-19T03:07:45;3.35;;;2.42;;
62071;SDS011;48031;48.542;13.232;2023-11-19T03:11:46;2.70;;;2.22;;
62071;SDS011;48031;48.542;13.232;2023-11-19T03:15:48;4.00;;;2.75;;
62071;SDS011;48031;48.542;13.232;2023-11-19T03:19:51;3.95;;;2.83;;
62071;SDS011;48031;48.542;13.232;2023-11-19T03:23:52;3.08;;;2.40;;
62071;SDS011;48031;48.542;13.232;2023-11-19T03:27:54;3.40;;;2.50;;
62071;SDS011;48031;48.542;13.232;2023-11-19T03:31:56;3.60;;;2.40;;
62071;SDS011;48031;48.542;13.232;2023-11-19T03:35:58;4.93;;;2.83;;
62071;SDS011;48031;48.542;13.232;2023-11-19T03:40:00;5.40;;;2.75;;
62071;SDS011;48031;48.542;13.232;2023-11-19T03:44:04;4.05;;;2.53;;
62071;SDS011;48031;48.542;13.232;2023-11-19T03:48:05;3.78;;;3.00;;
62071;SDS011;48031;48.542;13.232;2023-11-19T03:52:08;2.85;;;2.28;;
62071;SDS011;48031;48.542;13.232;2023-11-19T03:56:20;3.58;;;2.42;;
62071;SDS011;48031;48.542;13.232;2023-11-19T04:00:22;2.80;;;2.03;;
62071;SDS011;48031;48.542;13.232;2023-11-19T04:04:24;2.72;;;1.95;;
62071;SDS011;48031;48.542;13.232;2023-11-19T04:08:26;3.08;;;2.42;;
62071;SDS011;48031;48.542;13.232;2023-11-19T04:12:28;2.83;;;2.17;;
62071;SDS011;48031;48.542;13.232;2023-11-19T04:16:30;1.67;;;1.58;;
62071;SDS011;48031;48.542;13.232;2023-11-19T04:20:32;2.72;;;1.90;;
62071;SDS011;48031;48.542;13.232;2023-11-19T04:24:34;2.95;;;2.00;;
62071;SDS011;48031;48.542;13.232;2023-11-19T04:28:37;2.50;;;2.30;;
62071;SDS011;48031;48.542;13.232;2023-11-19T04:32:39;2.30;;;1.88;;
62071;SDS011;48031;48.542;13.232;2023-11-19T04:36:41;3.53;;;2.22;;
62071;SDS011;48031;48.542;13.232;2023-11-19T04:40:43;3.40;;;2.40;;
62071;SDS011;48031;48.542;13.232;2023-11-19T04:44:45;2.10;;;1.90;;
62071;SDS011;48031;48.542;13.232;2023-11-19T04:48:47;2.30;;;1.70;;
62071;SDS011;48031;48.542;13.232;2023-11-19T04:52:49;2.65;;;2.00;;
62071;SDS011;48031;48.542;13.232;2023-11-19T04:56:50;3.70;;;2.88;;
62071;SDS011;48031;48.542;13.232;2023-11-19T05:00:52;3.92;;;2.85;;
62071;SDS011;48031;48.542;13.232;2023-11-19T05:04:54;4.13;;;3.20;;
62071;SDS011;48031;48.542;13.232;2023-11-19T05:08:59;3.78;;;2.75;;
62071;SDS011;48031;48.542;13.232;2023-11-19T05:13:09;2.20;;;2.00;;
62071;SDS011;48031;48.542;13.232;2023-11-19T05:17:11;2.92;;;2.28;;
62071;SDS011;48031;48.542;13.232;2023-11-19T05:21:14;2.25;;;1.95;;
62071;SDS011;48031;48.542;13.232;2023-11-19T05:25:15;2.38;;;2.00;;
62071;SDS011;48031;48.542;13.232;2023-11-19T05:29:17;3.05;;;2.25;;
62071;SDS011;48031;48.542;13.232;2023-11-19T05:33:19;3.60;;;2.40;;
62071;SDS011;48031;48.542;13.232;2023-11-19T05:37:21;4.13;;;2.47;;
62071;SDS011;48031;48.542;13.232;2023-11-19T05:41:23;3.95;;;2.78;;
62071;SDS011;48031;48.542;13.232;2023-11-19T05:45:24;4.20;;;2.60;;
62071;SDS011;48031;48.542;13.232;2023-11-19T05:49:26;3.90;;;2.60;;
62071;SDS011;48031;48.542;13.232;2023-11-19T05:53:28;4.50;;;2.78;;
62071;SDS011;48031;48.542;13.232;2023-11-19T05:57:30;3.85;;;2.78;;
62071;SDS011;48031;48.542;13.232;2023-11-19T06:01:35;4.78;;;2.90;;
62071;SDS011;48031;48.542;13.232;2023-11-19T06:05:38;3.95;;;2.60;;
62071;SDS011;48031;48.542;13.232;2023-11-19T06:09:40;4.22;;;2.60;;
62071;SDS011;48031;48.542;13.232;2023-11-19T06:13:42;3.80;;;2.55;;
62071;SDS011;48031;48.542;13.232;2023-11-19T06:17:45;4.65;;;2.72;;
62071;SDS011;48031;48.542;13.232;2023-11-19T06:21:48;3.95;;;2.88;;
62071;SDS011;48031;48.542;13.232;2023-11-19T06:25:50;4.95;;;2.45;;
62071;SDS011;48031;48.542;13.232;2023-11-19T06:29:51;3.80;;;2.50;;
62071;SDS011;48031;48.542;13.232;2023-11-19T06:33:53;3.20;;;2.53;;
62071;SDS011;48031;48.542;13.232;2023-11-19T06:37:55;5.10;;;2.83;;
62071;SDS011;48031;48.542;13.232;2023-11-19T06:41:57;3.08;;;2.33;;
62071;SDS011;48031;48.542;13.232;2023-11-19T06:45:59;3.50;;;2.55;;
62071;SDS011;48031;48.542;13.232;2023-11-19T06:50:01;2.40;;;2.00;;
62071;SDS011;48031;48.542;13.232;2023-11-19T06:54:05;3.05;;;2.20;;
62071;SDS011;48031;48.542;13.232;2023-11-19T06:58:07;4.55;;;2.72;;
62071;SDS011;48031;48.542;13.232;2023-11-19T07:02:09;4.03;;;2.85;;
62071;SDS011;48031;48.542;13.232;2023-11-19T07:06:11;4.43;;;2.40;;
62071;SDS011;48031;48.542;13.232;2023-11-19T07:10:14;3.30;;;2.30;;
62071;SDS011;48031;48.542;13.232;2023-11-19T07:14:17;3.33;;;2.38;;
62071;SDS011;48031;48.542;13.232;2023-11-19T07:18:19;2.80;;;2.00;;
62071;SDS011;48031;48.542;13.232;2023-11-19T07:22:23;4.22;;;2.70;;
62071;SDS011;48031;48.542;13.232;2023-11-19T07:26:25;4.78;;;3.00;;
62071;SDS011;48031;48.542;13.232;2023-11-19T07:30:27;4.03;;;2.70;;
62071;SDS011;48031;48.542;13.232;2023-11-19T07:34:28;4.45;;;2.80;;
62071;SDS011;48031;48.542;13.232;2023-11-19T07:38:30;4.88;;;3.08;;
62071;SDS011;48031;48.542;13.232;2023-11-19T07:42:32;6.07;;;3.58;;
62071;SDS011;48031;48.542;13.232;2023-11-19T07:46:34;4.15;;;2.85;;
62071;SDS011;48031;48.542;13.232;2023-11-19T07:50:35;4.32;;;2.92;;
62071;SDS011;48031;48.542;13.232;2023-11-19T07:54:37;4.88;;;3.45;;
62071;SDS011;48031;48.542;13.232;2023-11-19T07:58:39;8.10;;;4.40;;
62071;SDS011;48031;48.542;13.232;2023-11-19T08:02:41;7.13;;;3.38;;
62071;SDS011;48031;48.542;13.232;2023-11-19T08:06:43;4.93;;;2.88;;
62071;SDS011;48031;48.542;13.232;2023-11-19T08:10:45;5.65;;;3.40;;
62071;SDS011;48031;48.542;13.232;2023-11-19T08:14:49;3.15;;;2.40;;
62071;SDS011;48031;48.542;13.232;2023-11-19T08:18:51;3.75;;;2.35;;
62071;SDS011;48031;48.542;13.232;2023-11-19T08:22:53;4.20;;;2.83;;
62071;SDS011;48031;48.542;13.232;2023-11-19T08:26:54;4.63;;;2.75;;
62071;SDS011;48031;48.542;13.232;2023-11-19T08:30:59;3.28;;;2.35;;
62071;SDS011;48031;48.542;13.232;2023-11-19T08:35:01;3.40;;;2.65;;
62071;SDS011;48031;48.542;13.232;2023-11-19T08:39:03;4.63;;;2.58;;
62071;SDS011;48031;48.542;13.232;2023-11-19T08:43:06;2.88;;;2.28;;
62071;SDS011;48031;48.542;13.232;2023-11-19T08:47:08;3.40;;;2.40;;
62071;SDS011;48031;48.542;13.232;2023-11-19T08:51:11;3.63;;;2.50;;
62071;SDS011;48031;48.542;13.232;2023-11-19T08:55:13;4.28;;;2.92;;
62071;SDS011;48031;48.542;13.232;2023-11-19T08:59:15;4.05;;;2.85;;
62071;SDS011;48031;48.542;13.232;2023-11-19T09:03:18;3.53;;;2.67;;
62071;SDS011;48031;48.542;13.232;2023-11-19T09:07:22;5.82;;;4.13;;
62071;SDS011;48031;48.542;13.232;2023-11-19T09:11:23;4.40;;;2.88;;
62071;SDS011;48031;48.542;13.232;2023-11-19T09:15:25;3.72;;;2.70;;
62071;SDS011;48031;48.542;13.232;2023-11-19T09:19:27;4.20;;;2.60;;
62071;SDS011;48031;48.542;13.232;2023-11-19T09:23:29;4.18;;;2.78;;
62071;SDS011;48031;48.542;13.232;2023-11-19T09:27:34;2.53;;;2.05;;
62071;SDS011;48031;48.542;13.232;2023-11-19T09:31:37;2.10;;;1.90;;
62071;SDS011;48031;48.542;13.232;2023-11-19T09:35:39;2.78;;;2.22;;
62071;SDS011;48031;48.542;13.232;2023-11-19T09:39:41;2.65;;;2.00;;
62071;SDS011;48031;48.542;13.232;2023-11-19T09:43:46;2.40;;;1.80;;
62071;SDS011;48031;48.542;13.232;2023-11-19T09:47:48;1.98;;;1.77;;
62071;SDS011;48031;48.542;13.232;2023-11-19T09:51:54;2.60;;;2.28;;
62071;SDS011;48031;48.542;13.232;2023-11-19T09:55:56;2.90;;;2.60;;
62071;SDS011;48031;48.542;13.232;2023-11-19T09:59:57;2.63;;;2.00;;
62071;SDS011;48031;48.542;13.232;2023-11-19T10:03:59;2.22;;;1.90;;
62071;SDS011;48031;48.542;13.232;2023-11-19T10:08:02;1.98;;;1.70;;
62071;SDS011;48031;48.542;13.232;2023-11-19T10:12:04;2.33;;;1.90;;
62071;SDS011;48031;48.542;13.232;2023-11-19T10:16:09;2.75;;;2.10;;
62071;SDS011;48031;48.542;13.232;2023-11-19T10:24:15;3.92;;;2.80;;
62071;SDS011;48031;48.542;13.232;2023-11-19T10:28:38;2.50;;;1.50;;
62071;SDS011;48031;48.542;13.232;2023-11-19T10:32:40;2.13;;;1.55;;
62071;SDS011;48031;48.542;13.232;2023-11-19T10:36:42;2.45;;;2.10;;
62071;SDS011;48031;48.542;13.232;2023-11-19T10:40:45;2.47;;;1.90;;
62071;SDS011;48031;48.542;13.232;2023-11-19T10:44:47;3.53;;;2.28;;
62071;SDS011;48031;48.542;13.232;2023-11-19T10:48:49;2.70;;;2.00;;
62071;SDS011;48031;48.542;13.232;2023-11-19T10:52:52;1.98;;;1.67;;
62071;SDS011;48031;48.542;13.232;2023-11-19T10:56:58;3.45;;;1.88;;
62071;SDS011;48031;48.542;13.232;2023-11-19T11:01:02;1.70;;;1.55;;
62071;SDS011;48031;48.542;13.232;2023-11-19T11:05:06;2.75;;;2.20;;
62071;SDS011;48031;48.542;13.232;2023-11-19T11:09:09;1.80;;;1.60;;
62071;SDS011;48031;48.542;13.232;2023-11-19T11:13:14;1.83;;;1.48;;
62071;SDS011;48031;48.542;13.232;2023-11-19T11:17:17;1.48;;;1.38;;
62071;SDS011;48031;48.542;13.232;2023-11-19T11:21:20;2.35;;;2.00;;
62071;SDS011;48031;48.542;13.232;2023-11-19T11:29:46;1.55;;;1.45;;
62071;SDS011;48031;48.542;13.232;2023-11-19T11:34:09;2.05;;;1.67;;
62071;SDS011;48031;48.542;13.232;2023-11-19T11:38:13;3.10;;;2.10;;
62071;SDS011;48031;48.542;13.232;2023-11-19T11:50:35;2.00;;;1.80;;
62071;SDS011;48031;48.542;13.232;2023-11-19T11:54:37;2.75;;;2.05;;
62071;SDS011;48031;48.542;13.232;2023-11-19T11:58:39;2.30;;;2.10;;
62071;SDS011;48031;48.542;13.232;2023-11-19T12:02:46;2.53;;;1.70;;
62071;SDS011;48031;48.542;13.232;2023-11-19T12:07:06;1.58;;;1.45;;
62071;SDS011;48031;48.542;13.232;2023-11-19T12:11:08;1.70;;;1.38;;
62071;SDS011;48031;48.542;13.232;2023-11-19T12:15:10;2.05;;;1.85;;
62071;SDS011;48031;48.542;13.232;2023-11-19T12:19:12;3.88;;;2.00;;
62071;SDS011;48031;48.542;13.232;2023-11-19T12:23:14;1.58;;;1.45;;
62071;SDS011;48031;48.542;13.232;2023-11-19T12:27:17;2.42;;;2.10;;
62071;SDS011;48031;48.542;13.232;2023-11-19T12:31:19;1.92;;;1.50;;
62071;SDS011;48031;48.542;13.232;2023-11-19T12:35:21;2.38;;;1.73;;
62071;SDS011;48031;48.542;13.232;2023-11-19T12:39:23;2.40;;;1.67;;
62071;SDS011;48031;48.542;13.232;2023-11-19T12:43:25;2.65;;;2.05;;
62071;SDS011;48031;48.542;13.232;2023-11-19T12:47:27;1.80;;;1.60;;
62071;SDS011;48031;48.542;13.232;2023-11-19T12:51:32;4.15;;;2.70;;
62071;SDS011;48031;48.542;13.232;2023-11-19T12:55:36;3.65;;;2.50;;
62071;SDS011;48031;48.542;13.232;2023-11-19T12:59:38;4.47;;;2.65;;
62071;SDS011;48031;48.542;13.232;2023-11-19T13:03:40;4.90;;;3.00;;
62071;SDS011;48031;48.542;13.232;2023-11-19T13:07:42;5.65;;;3.25;;
62071;SDS011;48031;48.542;13.232;2023-11-19T13:11:44;4.85;;;3.30;;
62071;SDS011;48031;48.542;13.232;2023-11-19T13:15:47;2.72;;;2.28;;
62071;SDS011;48031;48.542;13.232;2023-11-19T13:19:50;3.50;;;2.13;;
62071;SDS011;48031;48.542;13.232;2023-11-19T13:23:53;2.53;;;1.90;;
62071;SDS011;48031;48.542;13.232;2023-11-19T13:27:55;2.00;;;1.80;;
62071;SDS011;48031;48.542;13.232;2023-11-19T13:31:57;4.28;;;2.42;;
62071;SDS011;48031;48.542;13.232;2023-11-19T13:36:00;5.07;;;3.30;;
62071;SDS011;48031;48.542;13.232;2023-11-19T13:44:08;4.07;;;2.80;;
62071;SDS011;48031;48.542;13.232;2023-11-19T13:48:10;3.60;;;2.53;;
62071;SDS011;48031;48.542;13.232;2023-11-19T13:52:12;3.20;;;2.53;;
62071;SDS011;48031;48.542;13.232;2023-11-19T13:56:14;4.93;;;2.58;;
62071;SDS011;48031;48.542;13.232;2023-11-19T14:00:16;2.80;;;2.22;;
62071;SDS011;48031;48.542;13.232;2023-11-19T14:04:18;4.22;;;2.42;;
62071;SDS011;48031;48.542;13.232;2023-11-19T14:08:20;3.42;;;2.30;;
62071;SDS011;48031;48.542;13.232;2023-11-19T14:12:26;3.80;;;2.53;;
62071;SDS011;48031;48.542;13.232;2023-11-19T14:16:28;4.07;;;2.60;;
62071;SDS011;48031;48.542;13.232;2023-11-19T14:20:30;4.13;;;3.08;;
62071;SDS011;48031;48.542;13.232;2023-11-19T14:24:33;4.82;;;3.42;;
62071;SDS011;48031;48.542;13.232;2023-11-19T14:28:34;6.00;;;3.33;;
62071;SDS011;48031;48.542;13.232;2023-11-19T14:32:36;6.20;;;3.85;;
62071;SDS011;48031;48.542;13.232;2023-11-19T14:36:38;5.72;;;3.25;;
62071;SDS011;48031;48.542;13.232;2023-11-19T14:40:40;5.15;;;3.25;;
62071;SDS011;48031;48.542;13.232;2023-11-19T14:44:44;4.43;;;3.13;;
62071;SDS011;48031;48.542;13.232;2023-11-19T14:48:45;7.18;;;3.50;;
62071;SDS011;48031;48.542;13.232;2023-11-19T14:52:47;4.55;;;2.97;;
62071;SDS011;48031;48.542;13.232;2023-11-19T14:56:49;7.18;;;4.22;;
62071;SDS011;48031;48.542;13.232;2023-11-19T15:00:51;5.15;;;3.30;;
62071;SDS011;48031;48.542;13.232;2023-11-19T15:04:53;6.13;;;4.47;;
62071;SDS011;48031;48.542;13.232;2023-11-19T15:08:55;5.45;;;3.45;;
62071;SDS011;48031;48.542;13.232;2023-11-19T15:12:57;6.68;;;4.45;;
62071;SDS011;48031;48.542;13.232;2023-11-19T15:16:59;6.47;;;3.55;;
62071;SDS011;48031;48.542;13.232;2023-11-19T15:21:02;6.43;;;4.10;;
62071;SDS011;48031;48.542;13.232;2023-11-19T15:25:05;4.50;;;3.25;;
62071;SDS011;48031;48.542;13.232;2023-11-19T15:29:11;3.67;;;2.20;;
62071;SDS011;48031;48.542;13.232;2023-11-19T15:33:15;5.00;;;2.97;;
62071;SDS011;48031;48.542;13.232;2023-11-19T15:37:18;5.88;;;3.03;;
62071;SDS011;48031;48.542;13.232;2023-11-19T15:41:20;11.65;;;4.82;;
62071;SDS011;48031;48.542;13.232;2023-11-19T15:45:22;9.57;;;4.47;;
62071;SDS011;48031;48.542;13.232;2023-11-19T15:49:23;6.72;;;2.55;;
62071;SDS011;48031;48.542;13.232;2023-11-19T15:53:25;4.65;;;2.40;;
62071;SDS011;48031;48.542;13.232;2023-11-19T15:57:27;3.10;;;2.22;;
62071;SDS011;48031;48.542;13.232;2023-11-19T16:01:29;3.40;;;2.33;;
62071;SDS011;48031;48.542;13.232;2023-11-19T16:05:32;3.90;;;2.70;;
62071;SDS011;48031;48.542;13.232;2023-11-19T16:09:34;2.60;;;1.80;;
62071;SDS011;48031;48.542;13.232;2023-11-19T16:13:35;5.93;;;3.35;;
62071;SDS011;48031;48.542;13.232;2023-11-19T16:17:37;4.40;;;2.67;;
62071;SDS011;48031;48.542;13.232;2023-11-19T16:21:40;5.70;;;3.42;;
62071;SDS011;48031;48.542;13.232;2023-11-19T16:25:42;4.80;;;2.80;;
62071;SDS011;48031;48.542;13.232;2023-11-19T16:29:44;4.40;;;3.10;;
62071;SDS011;48031;48.542;13.232;2023-11-19T16:33:47;4.03;;;2.80;;
62071;SDS011;48031;48.542;13.232;2023-11-19T16:37:49;7.65;;;3.83;;
62071;SDS011;48031;48.542;13.232;2023-11-19T16:41:51;8.32;;;5.40;;
62071;SDS011;48031;48.542;13.232;2023-11-19T16:45:53;9.82;;;5.78;;
62071;SDS011;48031;48.542;13.232;2023-11-19T16:49:55;17.95;;;6.63;;
62071;SDS011;48031;48.542;13.232;2023-11-19T16:53:57;11.13;;;5.55;;
62071;SDS011;48031;48.542;13.232;2023-11-19T16:57:59;10.18;;;6.00;;
62071;SDS011;48031;48.542;13.232;2023-11-19T17:02:00;5.75;;;3.47;;
62071;SDS011;48031;48.542;13.232;2023-11-19T17:06:03;3.92;;;2.38;;
62071;SDS011;48031;48.542;13.232;2023-11-19T17:10:05;13.18;;;7.07;;
62071;SDS011;48031;48.542;13.232;2023-11-19T17:14:08;10.82;;;6.30;;
62071;SDS011;48031;48.542;13.232;2023-11-19T17:18:11;9.20;;;5.03;;
62071;SDS011;48031;48.542;13.232;2023-11-19T17:22:13;7.13;;;4.38;;
62071;SDS011;48031;48.542;13.232;2023-11-19T17:26:15;4.97;;;3.28;;
62071;SDS011;48031;48.542;13.232;2023-11-19T17:30:17;3.33;;;2.60;;
62071;SDS011;48031;48.542;13.232;2023-11-19T17:34:19;3.72;;;2.50;;
62071;SDS011;48031;48.542;13.232;2023-11-19T17:38:22;2.75;;;2.42;;
62071;SDS011;48031;48.542;13.232;2023-11-19T17:42:28;3.45;;;2.80;;
62071;SDS011;48031;48.542;13.232;2023-11-19T17:46:30;2.70;;;2.25;;
62071;SDS011;48031;48.542;13.232;2023-11-19T17:50:32;3.28;;;2.40;;
62071;SDS011;48031;48.542;13.232;2023-11-19T17:54:34;2.83;;;2.30;;
62071;SDS011;48031;48.542;13.232;2023-11-19T17:58:36;1.70;;;1.60;;
62071;SDS011;48031;48.542;13.232;2023-11-19T18:02:39;1.85;;;1.63;;
62071;SDS011;48031;48.542;13.232;2023-11-19T18:06:44;3.90;;;2.13;;
62071;SDS011;48031;48.542;13.232;2023-11-19T18:10:46;2.90;;;2.00;;
62071;SDS011;48031;48.542;13.232;2023-11-19T18:14:48;1.77;;;1.40;;
62071;SDS011;48031;48.542;13.232;2023-11-19T18:18:53;3.28;;;2.20;;
62071;SDS011;48031;48.542;13.232;2023-11-19T18:22:55;3.65;;;2.70;;
62071;SDS011;48031;48.542;13.232;2023-11-19T18:26:58;2.25;;;2.03;;
62071;SDS011;48031;48.542;13.232;2023-11-19T18:31:00;4.13;;;2.47;;
62071;SDS011;48031;48.542;13.232;2023-11-19T18:35:03;2.65;;;1.90;;
62071;SDS011;48031;48.542;13.232;2023-11-19T18:39:07;2.22;;;1.60;;
62071;SDS011;48031;48.542;13.232;2023-11-19T18:43:11;1.73;;;1.30;;
62071;SDS011;48031;48.542;13.232;2023-11-19T18:47:15;0.93;;;0.90;;
62071;SDS011;48031;48.542;13.232;2023-11-19T18:51:16;1.10;;;1.00;;
62071;SDS011;48031;48.542;13.232;2023-11-19T18:55:18;1.25;;;1.10;;
62071;SDS011;48031;48.542;13.232;2023-11-19T18:59:20;1.15;;;1.05;;
62071;SDS011;48031;48.542;13.232;2023-11-19T19:03:22;1.40;;;1.30;;
62071;SDS011;48031;48.542;13.232;2023-11-19T19:07:25;1.48;;;1.38;;
62071;SDS011;48031;48.542;13.232;2023-11-19T19:11:27;3.08;;;1.63;;
62071;SDS011;48031;48.542;13.232;2023-11-19T19:15:29;2.58;;;1.88;;
62071;SDS011;48031;48.542;13.232;2023-11-19T19:19:30;4.25;;;2.40;;
62071;SDS011;48031;48.542;13.232;2023-11-19T19:23:33;3.97;;;2.70;;
62071;SDS011;48031;48.542;13.232;2023-11-19T19:27:35;3.00;;;2.20;;
62071;SDS011;48031;48.542;13.232;2023-11-19T19:31:37;2.60;;;1.95;;
62071;SDS011;48031;48.542;13.232;2023-11-19T19:35:39;3.13;;;2.22;;
62071;SDS011;48031;48.542;13.232;2023-11-19T19:39:41;3.53;;;2.22;;
62071;SDS011;48031;48.542;13.232;2023-11-19T19:43:42;3.15;;;2.30;;
62071;SDS011;48031;48.542;13.232;2023-11-19T19:47:44;3.63;;;2.40;;
62071;SDS011;48031;48.542;13.232;2023-11-19T19:51:46;3.42;;;1.92;;
62071;SDS011;48031;48.542;13.232;2023-11-19T19:55:48;2.17;;;1.60;;
62071;SDS011;48031;48.542;13.232;2023-11-19T19:59:50;1.55;;;1.45;;
62071;SDS011;48031;48.542;13.232;2023-11-19T20:03:51;2.30;;;2.00;;
62071;SDS011;48031;48.542;13.232;2023-11-19T20:07:53;5.28;;;3.00;;
62071;SDS011;48031;48.542;13.232;2023-11-19T20:11:59;2.40;;;2.10;;
62071;SDS011;48031;48.542;13.232;2023-11-19T20:16:01;2.65;;;2.00;;
62071;SDS011;48031;48.542;13.232;2023-11-19T20:20:03;2.00;;;1.77;;
62071;SDS011;48031;48.542;13.232;2023-11-19T20:24:05;2.22;;;1.60;;
62071;SDS011;48031;48.542;13.232;2023-11-19T20:28:08;1.40;;;1.30;;
62071;SDS011;48031;48.542;13.232;2023-11-19T20:32:09;1.75;;;1.50;;
62071;SDS011;48031;48.542;13.232;2023-11-19T20:36:11;1.60;;;1.33;;
62071;SDS011;48031;48.542;13.232;2023-11-19T20:40:16;1.35;;;1.25;;
62071;SDS011;48031;48.542;13.232;2023-11-19T20:44:18;1.40;;;1.25;;
62071;SDS011;48031;48.542;13.232;2023-11-19T20:48:20;1.30;;;1.20;;
62071;SDS011;48031;48.542;13.232;2023-11-19T20:52:22;1.45;;;1.35;;
62071;SDS011;48031;48.542;13.232;2023-11-19T20:56:24;1.50;;;1.40;;
62071;SDS011;48031;48.542;13.232;2023-11-19T21:00:26;3.03;;;2.10;;
62071;SDS011;48031;48.542;13.232;2023-11-19T21:04:28;4.15;;;2.00;;
62071;SDS011;48031;48.542;13.232;2023-11-19T21:08:30;3.30;;;2.67;;
62071;SDS011;48031;48.542;13.232;2023-11-19T21:12:31;4.25;;;2.35;;
62071;SDS011;48031;48.542;13.232;2023-11-19T21:16:33;1.52;;;1.42;;
62071;SDS011;48031;48.542;13.232;2023-11-19T21:20:35;2.90;;;1.50;;
62071;SDS011;48031;48.542;13.232;2023-11-19T21:24:37;1.70;;;1.40;;
62071;SDS011;48031;48.542;13.232;2023-11-19T21:28:39;1.67;;;1.52;;
62071;SDS011;48031;48.542;13.232;2023-11-19T21:32:41;1.60;;;1.20;;
62071;SDS011;48031;48.542;13.232;2023-11-19T21:36:43;1.77;;;1.13;;
62071;SDS011;48031;48.542;13.232;2023-11-19T21:40:45;1.20;;;1.10;;
62071;SDS011;48031;48.542;13.232;2023-11-19T21:44:47;1.20;;;1.10;;
62071;SDS011;48031;48.542;13.232;2023-11-19T21:48:49;2.38;;;1.55;;
62071;SDS011;48031;48.542;13.232;2023-11-19T21:52:51;1.08;;;1.08;;
62071;SDS011;48031;48.542;13.232;2023-11-19T21:56:53;1.50;;;1.20;;
62071;SDS011;48031;48.542;13.232;2023-11-19T22:00:54;1.00;;;1.00;;
62071;SDS011;48031;48.542;13.232;2023-11-19T22:04:56;1.95;;;1.20;;
62071;SDS011;48031;48.542;13.232;2023-11-19T22:08:58;2.55;;;1.35;;
62071;SDS011;48031;48.542;13.232;2023-11-19T22:13:00;3.58;;;1.10;;
62071;SDS011;48031;48.542;13.232;2023-11-19T22:17:02;4.28;;;1.40;;
62071;SDS011;48031;48.542;13.232;2023-11-19T22:21:05;5.97;;;1.38;;
62071;SDS011;48031;48.542;13.232;2023-11-19T22:25:06;1.67;;;1.20;;
62071;SDS011;48031;48.542;13.232;2023-11-19T22:29:11;4.38;;;1.40;;
62071;SDS011;48031;48.542;13.232;2023-11-19T22:33:14;2.13;;;1.15;;
62071;SDS011;48031;48.542;13.232;2023-11-19T22:37:16;1.45;;;1.20;;
62071;SDS011;48031;48.542;13.232;2023-11-19T22:41:17;2.95;;;1.27;;
62071;SDS011;48031;48.542;13.232;2023-11-19T22:45:19;3.03;;;1.48;;
62071;SDS011;48031;48.542;13.232;2023-11-19T22:49:21;2.85;;;1.80;;
62071;SDS011;48031;48.542;13.232;2023-11-19T22:53:23;4.80;;;1.55;;
62071;SDS011;48031;48.542;13.232;2023-11-19T22:57:25;3.78;;;1.63;;
62071;SDS011;48031;48.542;13.232;2023-11-19T23:01:27;4.85;;;1.50;;
62071;SDS011;48031;48.542;13.232;2023-11-19T23:05:29;5.30;;;1.65;;
62071;SDS011;48031;48.542;13.232;2023-11-19T23:09:32;5.55;;;1.38;;
62071;SDS011;48031;48.542;13.232;2023-11-19T23:13:34;5.70;;;1.50;;
62071;SDS011;48031;48.542;13.232;2023-11-19T23:17:36;4.93;;;1.50;;
62071;SDS011;48031;48.542;13.232;2023-11-19T23:21:38;3.10;;;1.38;;
62071;SDS011;48031;48.542;13.232;2023-11-19T23:25:44;3.90;;;1.55;;
62071;SDS011;48031;48.542;13.232;2023-11-19T23:29:46;4.80;;;1.40;;
62071;SDS011;48031;48.542;13.232;2023-11-19T23:33:47;4.63;;;1.70;;
62071;SDS011;48031;48.542;13.232;2023-11-19T23:37:49;5.65;;;1.38;;
62071;SDS011;48031;48.542;13.232;2023-11-19T23:41:52;7.00;;;1.52;;
62071;SDS011;48031;48.542;13.232;2023-11-19T23:45:54;4.22;;;1.25;;
62071;SDS011;48031;48.542;13.232;2023-11-19T23:49:55;2.33;;;1.52;;
62071;SDS011;48031;48.542;13.232;2023-11-19T23:53:57;3.28;;;1.13;;
62071;SDS011;48031;48.542;13.232;2023-11-19T23:57:59;4.10;;;1.30;;
